Pound, Virginia
Current Conditions -  °F | °C
As of 12:55 PM on Friday 21 Nov 2014 (Local Time) from KLNP Reporting Station
Clear Clear  
Wind Chill: 36°   Ceiling: Unl
Heat Index: 36°   Visibility: 10mi
Dew Point:   Wind: 3mph
Humidity: 28%   Direction: 310°NW
Pressure: 30.4"   Gusts: NA
Location:  37.12°N, 82.6°W
Report Text: KLNP 211755Z AUTO 31003KT 10SM CLR 02/M15 A3040 RMK AO2
Loading
Personal Weather Stations






























Interactive Weather Map New forecast layout! Learn more

10-Day Weather Forecast

Advertisements
Track Severe Weather on mobile